sensor_id;sensor_type;location;lat;lon;timestamp;temperature;humidity
2539;DHT22;1280;49.760;9.664;2024-02-16T00:02:37;11.80;80.60
2539;DHT22;1280;49.760;9.664;2024-02-16T00:05:06;11.70;80.50
2539;DHT22;1280;49.760;9.664;2024-02-16T00:07:35;11.70;80.40
2539;DHT22;1280;49.760;9.664;2024-02-16T00:10:04;11.60;80.40
2539;DHT22;1280;49.760;9.664;2024-02-16T00:12:34;11.60;80.60
2539;DHT22;1280;49.760;9.664;2024-02-16T00:15:05;11.60;80.60
2539;DHT22;1280;49.760;9.664;2024-02-16T00:17:33;11.60;80.50
2539;DHT22;1280;49.760;9.664;2024-02-16T00:20:01;11.50;80.50
2539;DHT22;1280;49.760;9.664;2024-02-16T00:22:30;11.50;80.60
2539;DHT22;1280;49.760;9.664;2024-02-16T00:24:58;11.40;80.70
2539;DHT22;1280;49.760;9.664;2024-02-16T00:27:25;11.40;80.90
2539;DHT22;1280;49.760;9.664;2024-02-16T00:29:54;11.40;81.00
2539;DHT22;1280;49.760;9.664;2024-02-16T00:32:23;11.40;81.00
2539;DHT22;1280;49.760;9.664;2024-02-16T00:34:57;11.40;81.00
2539;DHT22;1280;49.760;9.664;2024-02-16T00:37:26;11.40;81.00
2539;DHT22;1280;49.760;9.664;2024-02-16T00:39:54;11.40;81.10
2539;DHT22;1280;49.760;9.664;2024-02-16T00:42:22;11.50;81.00
2539;DHT22;1280;49.760;9.664;2024-02-16T00:44:50;11.50;81.00
2539;DHT22;1280;49.760;9.664;2024-02-16T00:47:18;11.50;80.90
2539;DHT22;1280;49.760;9.664;2024-02-16T00:49:48;11.50;80.90
2539;DHT22;1280;49.760;9.664;2024-02-16T00:52:16;11.50;80.90
2539;DHT22;1280;49.760;9.664;2024-02-16T00:54:44;11.50;80.90
2539;DHT22;1280;49.760;9.664;2024-02-16T00:57:13;11.50;80.90
2539;DHT22;1280;49.760;9.664;2024-02-16T00:59:41;11.50;80.90
2539;DHT22;1280;49.760;9.664;2024-02-16T01:02:09;11.50;80.90
2539;DHT22;1280;49.760;9.664;2024-02-16T01:04:38;11.50;81.00
2539;DHT22;1280;49.760;9.664;2024-02-16T01:07:07;11.60;81.00
2539;DHT22;1280;49.760;9.664;2024-02-16T01:09:35;11.60;80.90
2539;DHT22;1280;49.760;9.664;2024-02-16T01:12:04;11.50;80.90
2539;DHT22;1280;49.760;9.664;2024-02-16T01:14:32;11.50;80.90
2539;DHT22;1280;49.760;9.664;2024-02-16T01:17:00;11.50;80.90
2539;DHT22;1280;49.760;9.664;2024-02-16T01:19:28;11.50;80.80
2539;DHT22;1280;49.760;9.664;2024-02-16T01:21:57;11.50;80.80
2539;DHT22;1280;49.760;9.664;2024-02-16T01:24:27;11.50;80.90
2539;DHT22;1280;49.760;9.664;2024-02-16T01:26:55;11.50;80.90
2539;DHT22;1280;49.760;9.664;2024-02-16T01:29:24;11.50;80.90
2539;DHT22;1280;49.760;9.664;2024-02-16T01:31:52;11.50;80.80
2539;DHT22;1280;49.760;9.664;2024-02-16T01:34:20;11.40;80.80
2539;DHT22;1280;49.760;9.664;2024-02-16T01:36:48;11.40;80.80
2539;DHT22;1280;49.760;9.664;2024-02-16T01:39:16;11.30;80.80
2539;DHT22;1280;49.760;9.664;2024-02-16T01:41:45;11.30;80.80
2539;DHT22;1280;49.760;9.664;2024-02-16T01:44:13;11.20;80.90
2539;DHT22;1280;49.760;9.664;2024-02-16T01:46:43;11.20;81.00
2539;DHT22;1280;49.760;9.664;2024-02-16T01:49:12;11.20;81.10
2539;DHT22;1280;49.760;9.664;2024-02-16T01:51:42;11.30;81.10
2539;DHT22;1280;49.760;9.664;2024-02-16T01:54:12;11.20;81.00
2539;DHT22;1280;49.760;9.664;2024-02-16T01:56:41;11.20;81.10
2539;DHT22;1280;49.760;9.664;2024-02-16T01:59:12;11.20;81.10
2539;DHT22;1280;49.760;9.664;2024-02-16T02:01:40;11.20;81.30
2539;DHT22;1280;49.760;9.664;2024-02-16T02:04:08;11.20;81.30
2539;DHT22;1280;49.760;9.664;2024-02-16T02:06:36;11.20;81.30
2539;DHT22;1280;49.760;9.664;2024-02-16T02:09:05;11.20;81.30
2539;DHT22;1280;49.760;9.664;2024-02-16T02:11:33;11.20;81.30
2539;DHT22;1280;49.760;9.664;2024-02-16T02:14:02;11.20;81.30
2539;DHT22;1280;49.760;9.664;2024-02-16T02:16:31;11.10;81.20
2539;DHT22;1280;49.760;9.664;2024-02-16T02:19:13;11.10;81.20
2539;DHT22;1280;49.760;9.664;2024-02-16T02:21:41;11.00;81.30
2539;DHT22;1280;49.760;9.664;2024-02-16T02:24:11;11.00;81.60
2539;DHT22;1280;49.760;9.664;2024-02-16T02:26:39;11.00;81.70
2539;DHT22;1280;49.760;9.664;2024-02-16T02:29:07;11.10;81.70
2539;DHT22;1280;49.760;9.664;2024-02-16T02:31:36;11.10;81.70
2539;DHT22;1280;49.760;9.664;2024-02-16T02:34:03;11.20;81.70
2539;DHT22;1280;49.760;9.664;2024-02-16T02:36:32;11.20;81.70
2539;DHT22;1280;49.760;9.664;2024-02-16T02:39:00;11.20;81.50
2539;DHT22;1280;49.760;9.664;2024-02-16T02:41:29;11.10;81.50
2539;DHT22;1280;49.760;9.664;2024-02-16T02:43:59;11.10;81.40
2539;DHT22;1280;49.760;9.664;2024-02-16T02:46:27;11.10;81.50
2539;DHT22;1280;49.760;9.664;2024-02-16T02:48:55;11.00;81.60
2539;DHT22;1280;49.760;9.664;2024-02-16T02:51:24;11.00;81.70
2539;DHT22;1280;49.760;9.664;2024-02-16T02:53:53;11.00;81.70
2539;DHT22;1280;49.760;9.664;2024-02-16T02:56:21;11.10;81.70
2539;DHT22;1280;49.760;9.664;2024-02-16T02:58:51;11.10;81.70
2539;DHT22;1280;49.760;9.664;2024-02-16T03:01:19;11.10;81.70
2539;DHT22;1280;49.760;9.664;2024-02-16T03:03:47;11.10;81.70
2539;DHT22;1280;49.760;9.664;2024-02-16T03:06:17;11.10;81.70
2539;DHT22;1280;49.760;9.664;2024-02-16T03:08:45;11.10;81.60
2539;DHT22;1280;49.760;9.664;2024-02-16T03:11:14;11.10;81.70
2539;DHT22;1280;49.760;9.664;2024-02-16T03:13:42;11.10;81.60
2539;DHT22;1280;49.760;9.664;2024-02-16T03:16:12;11.10;81.60
2539;DHT22;1280;49.760;9.664;2024-02-16T03:18:40;11.00;81.50
2539;DHT22;1280;49.760;9.664;2024-02-16T03:21:08;11.00;81.60
2539;DHT22;1280;49.760;9.664;2024-02-16T03:23:36;11.00;81.60
2539;DHT22;1280;49.760;9.664;2024-02-16T03:26:04;11.00;81.60
2539;DHT22;1280;49.760;9.664;2024-02-16T03:28:32;11.00;81.60
2539;DHT22;1280;49.760;9.664;2024-02-16T03:31:00;11.00;81.60
2539;DHT22;1280;49.760;9.664;2024-02-16T03:33:31;10.90;81.70
2539;DHT22;1280;49.760;9.664;2024-02-16T03:36:01;10.90;81.40
2539;DHT22;1280;49.760;9.664;2024-02-16T03:38:29;10.90;81.60
2539;DHT22;1280;49.760;9.664;2024-02-16T03:40:57;10.90;81.70
2539;DHT22;1280;49.760;9.664;2024-02-16T03:43:25;10.90;81.80
2539;DHT22;1280;49.760;9.664;2024-02-16T03:45:54;10.90;81.80
2539;DHT22;1280;49.760;9.664;2024-02-16T03:48:21;10.90;81.80
2539;DHT22;1280;49.760;9.664;2024-02-16T03:50:51;10.90;81.80
2539;DHT22;1280;49.760;9.664;2024-02-16T03:53:19;10.90;81.80
2539;DHT22;1280;49.760;9.664;2024-02-16T03:55:47;10.90;81.80
2539;DHT22;1280;49.760;9.664;2024-02-16T03:58:15;10.90;81.80
2539;DHT22;1280;49.760;9.664;2024-02-16T04:00:43;10.90;81.70
2539;DHT22;1280;49.760;9.664;2024-02-16T04:03:12;10.90;81.40
2539;DHT22;1280;49.760;9.664;2024-02-16T04:05:40;10.90;81.70
2539;DHT22;1280;49.760;9.664;2024-02-16T04:08:09;10.90;81.90
2539;DHT22;1280;49.760;9.664;2024-02-16T04:10:38;10.90;81.80
2539;DHT22;1280;49.760;9.664;2024-02-16T04:13:07;10.80;81.70
2539;DHT22;1280;49.760;9.664;2024-02-16T04:15:35;10.80;81.80
2539;DHT22;1280;49.760;9.664;2024-02-16T04:18:04;10.80;81.90
2539;DHT22;1280;49.760;9.664;2024-02-16T04:20:32;10.80;81.90
2539;DHT22;1280;49.760;9.664;2024-02-16T04:23:00;10.80;81.90
2539;DHT22;1280;49.760;9.664;2024-02-16T04:25:30;10.80;81.80
2539;DHT22;1280;49.760;9.664;2024-02-16T04:27:58;10.70;81.90
2539;DHT22;1280;49.760;9.664;2024-02-16T04:30:26;10.70;82.00
2539;DHT22;1280;49.760;9.664;2024-02-16T04:32:54;10.70;82.00
2539;DHT22;1280;49.760;9.664;2024-02-16T04:35:23;10.70;82.10
2539;DHT22;1280;49.760;9.664;2024-02-16T04:37:50;10.70;82.20
2539;DHT22;1280;49.760;9.664;2024-02-16T04:40:19;10.70;82.20
2539;DHT22;1280;49.760;9.664;2024-02-16T04:42:49;10.70;82.30
2539;DHT22;1280;49.760;9.664;2024-02-16T04:45:19;10.80;82.30
2539;DHT22;1280;49.760;9.664;2024-02-16T04:47:47;10.80;82.40
2539;DHT22;1280;49.760;9.664;2024-02-16T04:50:16;10.80;82.20
2539;DHT22;1280;49.760;9.664;2024-02-16T04:52:44;10.80;82.30
2539;DHT22;1280;49.760;9.664;2024-02-16T04:55:12;10.80;82.30
2539;DHT22;1280;49.760;9.664;2024-02-16T04:57:40;10.80;82.20
2539;DHT22;1280;49.760;9.664;2024-02-16T05:00:11;10.70;82.30
2539;DHT22;1280;49.760;9.664;2024-02-16T05:02:39;10.70;82.20
2539;DHT22;1280;49.760;9.664;2024-02-16T05:05:08;10.70;82.40
2539;DHT22;1280;49.760;9.664;2024-02-16T05:07:36;10.70;82.50
2539;DHT22;1280;49.760;9.664;2024-02-16T05:10:08;10.70;82.40
2539;DHT22;1280;49.760;9.664;2024-02-16T05:12:36;10.70;82.50
2539;DHT22;1280;49.760;9.664;2024-02-16T05:15:05;10.70;82.50
2539;DHT22;1280;49.760;9.664;2024-02-16T05:17:35;10.70;82.60
2539;DHT22;1280;49.760;9.664;2024-02-16T05:20:03;10.70;82.70
2539;DHT22;1280;49.760;9.664;2024-02-16T05:22:31;10.80;82.70
2539;DHT22;1280;49.760;9.664;2024-02-16T05:24:59;10.80;82.70
2539;DHT22;1280;49.760;9.664;2024-02-16T05:27:27;10.80;82.70
2539;DHT22;1280;49.760;9.664;2024-02-16T05:29:56;10.80;82.70
2539;DHT22;1280;49.760;9.664;2024-02-16T05:32:24;10.80;82.70
2539;DHT22;1280;49.760;9.664;2024-02-16T05:34:54;10.90;82.60
2539;DHT22;1280;49.760;9.664;2024-02-16T05:37:22;10.90;82.60
2539;DHT22;1280;49.760;9.664;2024-02-16T05:39:50;10.90;82.60
2539;DHT22;1280;49.760;9.664;2024-02-16T05:42:24;10.90;82.60
2539;DHT22;1280;49.760;9.664;2024-02-16T05:44:52;10.90;82.60
2539;DHT22;1280;49.760;9.664;2024-02-16T05:47:20;10.90;82.60
2539;DHT22;1280;49.760;9.664;2024-02-16T05:49:49;10.90;82.60
2539;DHT22;1280;49.760;9.664;2024-02-16T05:52:20;10.90;82.60
2539;DHT22;1280;49.760;9.664;2024-02-16T05:54:49;10.90;82.60
2539;DHT22;1280;49.760;9.664;2024-02-16T05:57:19;10.90;82.50
2539;DHT22;1280;49.760;9.664;2024-02-16T05:59:49;10.80;82.50
2539;DHT22;1280;49.760;9.664;2024-02-16T06:02:19;10.80;82.50
2539;DHT22;1280;49.760;9.664;2024-02-16T06:04:48;10.80;82.50
2539;DHT22;1280;49.760;9.664;2024-02-16T06:07:16;10.80;82.50
2539;DHT22;1280;49.760;9.664;2024-02-16T06:09:46;10.80;82.50
2539;DHT22;1280;49.760;9.664;2024-02-16T06:12:14;10.80;82.50
2539;DHT22;1280;49.760;9.664;2024-02-16T06:14:43;10.70;82.50
2539;DHT22;1280;49.760;9.664;2024-02-16T06:17:11;10.70;82.50
2539;DHT22;1280;49.760;9.664;2024-02-16T06:19:41;10.70;82.40
2539;DHT22;1280;49.760;9.664;2024-02-16T06:22:10;10.70;82.50
2539;DHT22;1280;49.760;9.664;2024-02-16T06:24:40;10.70;82.50
2539;DHT22;1280;49.760;9.664;2024-02-16T06:27:09;10.70;82.50
2539;DHT22;1280;49.760;9.664;2024-02-16T06:29:37;10.60;82.40
2539;DHT22;1280;49.760;9.664;2024-02-16T06:32:06;10.60;82.40
2539;DHT22;1280;49.760;9.664;2024-02-16T06:34:34;10.60;82.50
2539;DHT22;1280;49.760;9.664;2024-02-16T06:37:03;10.60;82.50
2539;DHT22;1280;49.760;9.664;2024-02-16T06:39:31;10.50;82.40
2539;DHT22;1280;49.760;9.664;2024-02-16T06:41:59;10.50;82.40
2539;DHT22;1280;49.760;9.664;2024-02-16T06:44:30;10.50;82.50
2539;DHT22;1280;49.760;9.664;2024-02-16T06:46:58;10.50;82.80
2539;DHT22;1280;49.760;9.664;2024-02-16T06:49:26;10.50;82.90
2539;DHT22;1280;49.760;9.664;2024-02-16T06:51:54;10.50;82.90
2539;DHT22;1280;49.760;9.664;2024-02-16T06:54:23;10.50;82.90
2539;DHT22;1280;49.760;9.664;2024-02-16T06:56:51;10.50;82.90
2539;DHT22;1280;49.760;9.664;2024-02-16T06:59:26;10.50;83.00
2539;DHT22;1280;49.760;9.664;2024-02-16T07:01:55;10.50;82.90
2539;DHT22;1280;49.760;9.664;2024-02-16T07:04:23;10.50;82.80
2539;DHT22;1280;49.760;9.664;2024-02-16T07:06:51;10.50;82.60
2539;DHT22;1280;49.760;9.664;2024-02-16T07:09:19;10.50;82.80
2539;DHT22;1280;49.760;9.664;2024-02-16T07:11:49;10.50;82.80
2539;DHT22;1280;49.760;9.664;2024-02-16T07:14:20;10.50;82.90
2539;DHT22;1280;49.760;9.664;2024-02-16T07:16:48;10.50;82.90
2539;DHT22;1280;49.760;9.664;2024-02-16T07:19:17;10.50;82.90
2539;DHT22;1280;49.760;9.664;2024-02-16T07:21:45;10.50;82.80
2539;DHT22;1280;49.760;9.664;2024-02-16T07:24:13;10.50;82.90
2539;DHT22;1280;49.760;9.664;2024-02-16T07:26:42;10.40;82.90
2539;DHT22;1280;49.760;9.664;2024-02-16T07:29:10;10.50;83.00
2539;DHT22;1280;49.760;9.664;2024-02-16T07:31:40;10.50;83.00
2539;DHT22;1280;49.760;9.664;2024-02-16T07:34:08;10.50;83.10
2539;DHT22;1280;49.760;9.664;2024-02-16T07:36:41;10.50;83.10
2539;DHT22;1280;49.760;9.664;2024-02-16T07:39:09;10.50;83.10
2539;DHT22;1280;49.760;9.664;2024-02-16T07:41:39;10.60;83.00
2539;DHT22;1280;49.760;9.664;2024-02-16T07:44:07;10.60;83.00
2539;DHT22;1280;49.760;9.664;2024-02-16T07:46:40;10.60;83.00
2539;DHT22;1280;49.760;9.664;2024-02-16T07:49:08;10.60;83.00
2539;DHT22;1280;49.760;9.664;2024-02-16T07:51:38;10.60;83.00
2539;DHT22;1280;49.760;9.664;2024-02-16T07:54:08;10.60;83.00
2539;DHT22;1280;49.760;9.664;2024-02-16T07:56:36;10.70;83.00
2539;DHT22;1280;49.760;9.664;2024-02-16T07:59:04;10.70;83.10
2539;DHT22;1280;49.760;9.664;2024-02-16T08:01:33;10.70;83.10
2539;DHT22;1280;49.760;9.664;2024-02-16T08:04:01;10.70;83.10
2539;DHT22;1280;49.760;9.664;2024-02-16T08:06:32;10.70;83.20
2539;DHT22;1280;49.760;9.664;2024-02-16T08:09:00;10.70;83.30
2539;DHT22;1280;49.760;9.664;2024-02-16T08:11:32;10.80;83.30
2539;DHT22;1280;49.760;9.664;2024-02-16T08:14:00;10.80;83.40
2539;DHT22;1280;49.760;9.664;2024-02-16T08:16:29;10.80;83.40
2539;DHT22;1280;49.760;9.664;2024-02-16T08:18:57;10.90;83.40
2539;DHT22;1280;49.760;9.664;2024-02-16T08:21:27;10.90;83.40
2539;DHT22;1280;49.760;9.664;2024-02-16T08:23:55;10.90;83.50
2539;DHT22;1280;49.760;9.664;2024-02-16T08:26:24;11.00;83.60
2539;DHT22;1280;49.760;9.664;2024-02-16T08:28:54;11.10;83.90
2539;DHT22;1280;49.760;9.664;2024-02-16T08:31:23;11.20;83.90
2539;DHT22;1280;49.760;9.664;2024-02-16T08:33:51;11.30;83.80
2539;DHT22;1280;49.760;9.664;2024-02-16T08:36:20;11.40;83.80
2539;DHT22;1280;49.760;9.664;2024-02-16T08:38:56;11.50;83.70
2539;DHT22;1280;49.760;9.664;2024-02-16T08:41:24;11.60;83.60
2539;DHT22;1280;49.760;9.664;2024-02-16T08:43:54;11.60;83.50
2539;DHT22;1280;49.760;9.664;2024-02-16T08:46:23;11.70;83.50
2539;DHT22;1280;49.760;9.664;2024-02-16T08:48:51;11.70;83.30
2539;DHT22;1280;49.760;9.664;2024-02-16T08:51:19;11.80;83.30
2539;DHT22;1280;49.760;9.664;2024-02-16T08:53:47;11.80;83.20
2539;DHT22;1280;49.760;9.664;2024-02-16T08:56:15;11.80;83.20
2539;DHT22;1280;49.760;9.664;2024-02-16T08:58:45;11.90;83.20
2539;DHT22;1280;49.760;9.664;2024-02-16T09:01:15;11.90;83.30
2539;DHT22;1280;49.760;9.664;2024-02-16T09:03:43;12.00;83.20
2539;DHT22;1280;49.760;9.664;2024-02-16T09:06:11;12.00;83.20
2539;DHT22;1280;49.760;9.664;2024-02-16T09:08:42;12.00;83.30
2539;DHT22;1280;49.760;9.664;2024-02-16T09:11:19;12.10;83.30
2539;DHT22;1280;49.760;9.664;2024-02-16T09:13:51;12.20;83.20
2539;DHT22;1280;49.760;9.664;2024-02-16T09:16:22;12.20;83.20
2539;DHT22;1280;49.760;9.664;2024-02-16T09:18:51;12.20;83.20
2539;DHT22;1280;49.760;9.664;2024-02-16T09:21:20;12.30;83.20
2539;DHT22;1280;49.760;9.664;2024-02-16T09:23:50;12.30;83.10
2539;DHT22;1280;49.760;9.664;2024-02-16T09:26:19;12.30;83.10
2539;DHT22;1280;49.760;9.664;2024-02-16T09:28:47;12.40;83.10
2539;DHT22;1280;49.760;9.664;2024-02-16T09:31:16;12.40;83.00
2539;DHT22;1280;49.760;9.664;2024-02-16T09:33:45;12.40;83.00
2539;DHT22;1280;49.760;9.664;2024-02-16T09:36:13;12.50;83.00
2539;DHT22;1280;49.760;9.664;2024-02-16T09:38:41;12.50;83.00
2539;DHT22;1280;49.760;9.664;2024-02-16T09:41:09;12.60;82.90
2539;DHT22;1280;49.760;9.664;2024-02-16T09:43:38;12.60;82.90
2539;DHT22;1280;49.760;9.664;2024-02-16T09:46:08;12.60;82.90
2539;DHT22;1280;49.760;9.664;2024-02-16T09:48:39;12.60;82.90
2539;DHT22;1280;49.760;9.664;2024-02-16T09:51:11;12.70;82.90
2539;DHT22;1280;49.760;9.664;2024-02-16T09:53:40;12.70;82.90
2539;DHT22;1280;49.760;9.664;2024-02-16T09:56:08;12.70;82.80
2539;DHT22;1280;49.760;9.664;2024-02-16T09:58:37;12.70;82.80
2539;DHT22;1280;49.760;9.664;2024-02-16T10:01:05;12.70;82.80
2539;DHT22;1280;49.760;9.664;2024-02-16T10:03:34;12.70;82.80
2539;DHT22;1280;49.760;9.664;2024-02-16T10:06:06;12.70;82.80
2539;DHT22;1280;49.760;9.664;2024-02-16T10:08:47;12.80;82.90
2539;DHT22;1280;49.760;9.664;2024-02-16T10:11:18;12.80;82.90
2539;DHT22;1280;49.760;9.664;2024-02-16T10:13:58;12.90;82.80
2539;DHT22;1280;49.760;9.664;2024-02-16T10:16:27;13.00;82.70
2539;DHT22;1280;49.760;9.664;2024-02-16T10:18:57;13.10;82.60
2539;DHT22;1280;49.760;9.664;2024-02-16T10:21:32;13.10;82.40
2539;DHT22;1280;49.760;9.664;2024-02-16T10:24:04;13.20;82.20
2539;DHT22;1280;49.760;9.664;2024-02-16T10:26:35;13.30;81.90
2539;DHT22;1280;49.760;9.664;2024-02-16T10:29:07;13.40;81.80
2539;DHT22;1280;49.760;9.664;2024-02-16T10:31:38;13.50;81.80
2539;DHT22;1280;49.760;9.664;2024-02-16T10:34:06;13.50;81.70
2539;DHT22;1280;49.760;9.664;2024-02-16T10:36:37;13.60;81.60
2539;DHT22;1280;49.760;9.664;2024-02-16T10:39:07;13.60;81.50
2539;DHT22;1280;49.760;9.664;2024-02-16T10:41:40;13.60;81.40
2539;DHT22;1280;49.760;9.664;2024-02-16T10:44:10;13.70;81.30
2539;DHT22;1280;49.760;9.664;2024-02-16T10:46:38;13.70;81.20
2539;DHT22;1280;49.760;9.664;2024-02-16T10:49:07;13.70;81.10
2539;DHT22;1280;49.760;9.664;2024-02-16T10:51:38;13.80;80.80
2539;DHT22;1280;49.760;9.664;2024-02-16T10:54:09;13.80;80.60
2539;DHT22;1280;49.760;9.664;2024-02-16T10:56:40;13.80;80.50
2539;DHT22;1280;49.760;9.664;2024-02-16T10:59:11;13.80;80.40
2539;DHT22;1280;49.760;9.664;2024-02-16T11:01:42;13.80;80.20
2539;DHT22;1280;49.760;9.664;2024-02-16T11:04:14;13.90;80.10
2539;DHT22;1280;49.760;9.664;2024-02-16T11:06:53;13.90;80.00
2539;DHT22;1280;49.760;9.664;2024-02-16T11:09:27;13.90;79.80
2539;DHT22;1280;49.760;9.664;2024-02-16T11:11:59;13.90;79.80
2539;DHT22;1280;49.760;9.664;2024-02-16T11:14:37;13.90;79.60
2539;DHT22;1280;49.760;9.664;2024-02-16T11:17:09;13.90;79.60
2539;DHT22;1280;49.760;9.664;2024-02-16T11:19:39;14.00;79.50
2539;DHT22;1280;49.760;9.664;2024-02-16T11:22:09;14.00;79.60
2539;DHT22;1280;49.760;9.664;2024-02-16T11:24:44;14.10;79.60
2539;DHT22;1280;49.760;9.664;2024-02-16T11:27:13;14.20;79.50
2539;DHT22;1280;49.760;9.664;2024-02-16T11:29:51;14.30;79.50
2539;DHT22;1280;49.760;9.664;2024-02-16T11:32:20;14.40;79.30
2539;DHT22;1280;49.760;9.664;2024-02-16T11:34:49;14.60;79.30
2539;DHT22;1280;49.760;9.664;2024-02-16T11:37:18;14.60;79.20
2539;DHT22;1280;49.760;9.664;2024-02-16T11:40:00;14.70;79.20
2539;DHT22;1280;49.760;9.664;2024-02-16T11:42:30;14.80;79.00
2539;DHT22;1280;49.760;9.664;2024-02-16T11:44:58;14.90;78.60
2539;DHT22;1280;49.760;9.664;2024-02-16T11:47:26;15.00;78.50
2539;DHT22;1280;49.760;9.664;2024-02-16T11:50:01;15.10;78.40
2539;DHT22;1280;49.760;9.664;2024-02-16T11:52:30;15.20;78.10
2539;DHT22;1280;49.760;9.664;2024-02-16T11:55:01;15.20;77.90
2539;DHT22;1280;49.760;9.664;2024-02-16T11:57:33;15.20;77.70
2539;DHT22;1280;49.760;9.664;2024-02-16T12:00:02;15.30;77.50
2539;DHT22;1280;49.760;9.664;2024-02-16T12:02:35;15.30;77.40
2539;DHT22;1280;49.760;9.664;2024-02-16T12:05:05;15.30;77.20
2539;DHT22;1280;49.760;9.664;2024-02-16T12:07:37;15.30;77.10
2539;DHT22;1280;49.760;9.664;2024-02-16T12:10:11;15.30;77.00
2539;DHT22;1280;49.760;9.664;2024-02-16T12:12:40;15.30;76.90
2539;DHT22;1280;49.760;9.664;2024-02-16T12:15:12;15.30;76.80
2539;DHT22;1280;49.760;9.664;2024-02-16T12:17:40;15.30;76.70
2539;DHT22;1280;49.760;9.664;2024-02-16T12:20:11;15.30;76.70
2539;DHT22;1280;49.760;9.664;2024-02-16T12:22:40;15.40;76.60
2539;DHT22;1280;49.760;9.664;2024-02-16T12:25:09;15.40;76.50
2539;DHT22;1280;49.760;9.664;2024-02-16T12:27:38;15.50;76.40
2539;DHT22;1280;49.760;9.664;2024-02-16T12:30:09;15.50;76.40
2539;DHT22;1280;49.760;9.664;2024-02-16T12:32:37;15.60;76.30
2539;DHT22;1280;49.760;9.664;2024-02-16T12:35:09;15.70;76.10
2539;DHT22;1280;49.760;9.664;2024-02-16T12:37:39;15.80;76.10
2539;DHT22;1280;49.760;9.664;2024-02-16T12:40:12;15.80;75.80
2539;DHT22;1280;49.760;9.664;2024-02-16T12:42:41;15.90;75.70
2539;DHT22;1280;49.760;9.664;2024-02-16T12:45:13;15.90;75.50
2539;DHT22;1280;49.760;9.664;2024-02-16T12:47:44;15.90;75.30
2539;DHT22;1280;49.760;9.664;2024-02-16T12:50:20;15.90;75.40
2539;DHT22;1280;49.760;9.664;2024-02-16T12:52:49;15.90;75.30
2539;DHT22;1280;49.760;9.664;2024-02-16T12:55:34;16.00;75.30
2539;DHT22;1280;49.760;9.664;2024-02-16T12:58:07;16.00;75.30
2539;DHT22;1280;49.760;9.664;2024-02-16T13:00:36;16.00;75.40
2539;DHT22;1280;49.760;9.664;2024-02-16T13:03:08;16.00;75.30
2539;DHT22;1280;49.760;9.664;2024-02-16T13:05:38;16.10;75.20
2539;DHT22;1280;49.760;9.664;2024-02-16T13:08:06;16.10;75.10
2539;DHT22;1280;49.760;9.664;2024-02-16T13:10:38;16.10;75.10
2539;DHT22;1280;49.760;9.664;2024-02-16T13:13:07;16.10;75.00
2539;DHT22;1280;49.760;9.664;2024-02-16T13:15:37;16.10;75.10
2539;DHT22;1280;49.760;9.664;2024-02-16T13:18:05;16.10;75.10
2539;DHT22;1280;49.760;9.664;2024-02-16T13:20:34;16.20;75.20
2539;DHT22;1280;49.760;9.664;2024-02-16T13:23:05;16.20;75.20
2539;DHT22;1280;49.760;9.664;2024-02-16T13:25:34;16.30;75.10
2539;DHT22;1280;49.760;9.664;2024-02-16T13:28:07;16.30;74.90
2539;DHT22;1280;49.760;9.664;2024-02-16T13:30:42;16.30;75.00
2539;DHT22;1280;49.760;9.664;2024-02-16T13:33:11;16.40;75.10
2539;DHT22;1280;49.760;9.664;2024-02-16T13:35:41;16.40;75.10
2539;DHT22;1280;49.760;9.664;2024-02-16T13:38:10;16.40;75.10
2539;DHT22;1280;49.760;9.664;2024-02-16T13:40:39;16.50;75.20
2539;DHT22;1280;49.760;9.664;2024-02-16T13:43:12;16.50;75.00
2539;DHT22;1280;49.760;9.664;2024-02-16T13:45:51;16.50;74.90
2539;DHT22;1280;49.760;9.664;2024-02-16T13:48:21;16.50;74.90
2539;DHT22;1280;49.760;9.664;2024-02-16T13:50:50;16.40;74.90
2539;DHT22;1280;49.760;9.664;2024-02-16T13:53:24;16.40;75.00
2539;DHT22;1280;49.760;9.664;2024-02-16T13:55:54;16.40;75.00
2539;DHT22;1280;49.760;9.664;2024-02-16T13:58:27;16.30;75.00
2539;DHT22;1280;49.760;9.664;2024-02-16T14:00:56;16.30;75.10
2539;DHT22;1280;49.760;9.664;2024-02-16T14:03:25;16.30;75.10
2539;DHT22;1280;49.760;9.664;2024-02-16T14:05:57;16.30;75.10
2539;DHT22;1280;49.760;9.664;2024-02-16T14:08:26;16.30;75.30
2539;DHT22;1280;49.760;9.664;2024-02-16T14:11:03;16.30;75.30
2539;DHT22;1280;49.760;9.664;2024-02-16T14:13:33;16.40;75.40
2539;DHT22;1280;49.760;9.664;2024-02-16T14:16:02;16.40;75.60
2539;DHT22;1280;49.760;9.664;2024-02-16T14:18:31;16.50;75.50
2539;DHT22;1280;49.760;9.664;2024-02-16T14:21:03;16.50;75.30
2539;DHT22;1280;49.760;9.664;2024-02-16T14:23:32;16.50;75.30
2539;DHT22;1280;49.760;9.664;2024-02-16T14:26:01;16.60;75.20
2539;DHT22;1280;49.760;9.664;2024-02-16T14:28:33;16.60;75.20
2539;DHT22;1280;49.760;9.664;2024-02-16T14:31:04;16.60;75.20
2539;DHT22;1280;49.760;9.664;2024-02-16T14:33:36;16.60;75.00
2539;DHT22;1280;49.760;9.664;2024-02-16T14:36:06;16.60;74.90
2539;DHT22;1280;49.760;9.664;2024-02-16T14:38:36;16.60;75.00
2539;DHT22;1280;49.760;9.664;2024-02-16T14:41:13;16.60;75.00
2539;DHT22;1280;49.760;9.664;2024-02-16T14:43:46;16.60;75.10
2539;DHT22;1280;49.760;9.664;2024-02-16T14:46:14;16.60;75.10
2539;DHT22;1280;49.760;9.664;2024-02-16T14:48:44;16.60;75.10
2539;DHT22;1280;49.760;9.664;2024-02-16T14:51:15;16.60;75.10
2539;DHT22;1280;49.760;9.664;2024-02-16T14:53:44;16.60;75.10
2539;DHT22;1280;49.760;9.664;2024-02-16T14:56:12;16.60;75.10
2539;DHT22;1280;49.760;9.664;2024-02-16T14:58:40;16.60;75.20
2539;DHT22;1280;49.760;9.664;2024-02-16T15:01:11;16.60;75.30
2539;DHT22;1280;49.760;9.664;2024-02-16T15:03:39;16.60;75.30
2539;DHT22;1280;49.760;9.664;2024-02-16T15:06:08;16.60;75.30
2539;DHT22;1280;49.760;9.664;2024-02-16T15:08:36;16.60;75.40
2539;DHT22;1280;49.760;9.664;2024-02-16T15:11:04;16.50;75.40
2539;DHT22;1280;49.760;9.664;2024-02-16T15:13:33;16.50;75.30
2539;DHT22;1280;49.760;9.664;2024-02-16T15:16:05;16.50;75.30
2539;DHT22;1280;49.760;9.664;2024-02-16T15:18:34;16.40;75.40
2539;DHT22;1280;49.760;9.664;2024-02-16T15:21:03;16.40;75.40
2539;DHT22;1280;49.760;9.664;2024-02-16T15:23:31;16.40;75.50
2539;DHT22;1280;49.760;9.664;2024-02-16T15:26:00;16.40;75.50
2539;DHT22;1280;49.760;9.664;2024-02-16T15:28:30;16.40;75.50
2539;DHT22;1280;49.760;9.664;2024-02-16T15:30:58;16.30;75.60
2539;DHT22;1280;49.760;9.664;2024-02-16T15:33:26;16.30;75.60
2539;DHT22;1280;49.760;9.664;2024-02-16T15:35:57;16.30;75.60
2539;DHT22;1280;49.760;9.664;2024-02-16T15:38:25;16.30;75.60
2539;DHT22;1280;49.760;9.664;2024-02-16T15:40:54;16.20;75.50
2539;DHT22;1280;49.760;9.664;2024-02-16T15:43:22;16.20;75.50
2539;DHT22;1280;49.760;9.664;2024-02-16T15:45:51;16.20;75.60
2539;DHT22;1280;49.760;9.664;2024-02-16T15:48:20;16.10;75.60
2539;DHT22;1280;49.760;9.664;2024-02-16T15:50:48;16.10;75.60
2539;DHT22;1280;49.760;9.664;2024-02-16T15:53:23;16.10;75.60
2539;DHT22;1280;49.760;9.664;2024-02-16T15:55:51;16.00;75.60
2539;DHT22;1280;49.760;9.664;2024-02-16T15:58:20;16.00;75.60
2539;DHT22;1280;49.760;9.664;2024-02-16T16:00:48;16.00;75.70
2539;DHT22;1280;49.760;9.664;2024-02-16T16:03:17;16.00;75.70
2539;DHT22;1280;49.760;9.664;2024-02-16T16:05:45;15.90;75.80
2539;DHT22;1280;49.760;9.664;2024-02-16T16:08:13;15.90;75.80
2539;DHT22;1280;49.760;9.664;2024-02-16T16:10:42;15.90;75.90
2539;DHT22;1280;49.760;9.664;2024-02-16T16:13:10;15.80;75.90
2539;DHT22;1280;49.760;9.664;2024-02-16T16:15:42;15.80;76.00
2539;DHT22;1280;49.760;9.664;2024-02-16T16:18:11;15.80;76.10